sensor_id;sensor_type;location;lat;lon;timestamp;temperature;humidity
36002;DHT22;22070;50.922;5.430;2022-09-09T00:00:20;14.80;99.90
36002;DHT22;22070;50.922;5.430;2022-09-09T00:03:08;14.80;99.90
36002;DHT22;22070;50.922;5.430;2022-09-09T00:09:04;14.80;99.90
36002;DHT22;22070;50.922;5.430;2022-09-09T00:14:35;14.80;99.90
36002;DHT22;22070;50.922;5.430;2022-09-09T00:17:04;14.80;99.90
36002;DHT22;22070;50.922;5.430;2022-09-09T00:19:41;14.90;99.90
36002;DHT22;22070;50.922;5.430;2022-09-09T00:22:25;14.80;99.90
36002;DHT22;22070;50.922;5.430;2022-09-09T00:25:00;14.90;99.90
36002;DHT22;22070;50.922;5.430;2022-09-09T00:27:41;14.80;99.90
36002;DHT22;22070;50.922;5.430;2022-09-09T00:30:29;14.90;99.90
36002;DHT22;22070;50.922;5.430;2022-09-09T00:33:01;15.00;99.90
36002;DHT22;22070;50.922;5.430;2022-09-09T00:35:37;14.90;99.90
36002;DHT22;22070;50.922;5.430;2022-09-09T00:38:32;14.80;99.90
36002;DHT22;22070;50.922;5.430;2022-09-09T00:43:36;14.60;99.90
36002;DHT22;22070;50.922;5.430;2022-09-09T00:57:03;14.70;99.90
36002;DHT22;22070;50.922;5.430;2022-09-09T00:59:51;14.70;99.90
36002;DHT22;22070;50.922;5.430;2022-09-09T01:04:47;14.60;99.90
36002;DHT22;22070;50.922;5.430;2022-09-09T01:07:17;14.60;99.90
36002;DHT22;22070;50.922;5.430;2022-09-09T01:09:58;14.50;99.90
36002;DHT22;22070;50.922;5.430;2022-09-09T01:12:43;14.50;99.90
36002;DHT22;22070;50.922;5.430;2022-09-09T01:15:15;14.40;99.90
36002;DHT22;22070;50.922;5.430;2022-09-09T01:18:00;14.40;99.90
36002;DHT22;22070;50.922;5.430;2022-09-09T01:24:00;14.40;99.90
36002;DHT22;22070;50.922;5.430;2022-09-09T01:26:42;14.40;99.90
36002;DHT22;22070;50.922;5.430;2022-09-09T01:29:12;14.40;99.90
36002;DHT22;22070;50.922;5.430;2022-09-09T01:31:39;14.30;99.90
36002;DHT22;22070;50.922;5.430;2022-09-09T01:34:15;14.40;99.90
36002;DHT22;22070;50.922;5.430;2022-09-09T01:36:57;14.40;99.90
36002;DHT22;22070;50.922;5.430;2022-09-09T01:39:24;14.50;99.90
36002;DHT22;22070;50.922;5.430;2022-09-09T01:41:50;14.60;99.90
36002;DHT22;22070;50.922;5.430;2022-09-09T01:44:16;14.50;99.90
36002;DHT22;22070;50.922;5.430;2022-09-09T01:46:43;14.50;99.90
36002;DHT22;22070;50.922;5.430;2022-09-09T01:49:09;14.60;99.90
36002;DHT22;22070;50.922;5.430;2022-09-09T01:51:36;14.70;99.90
36002;DHT22;22070;50.922;5.430;2022-09-09T01:54:04;14.70;99.90
36002;DHT22;22070;50.922;5.430;2022-09-09T02:02:16;14.60;99.90
36002;DHT22;22070;50.922;5.430;2022-09-09T02:04:48;14.70;99.90
36002;DHT22;22070;50.922;5.430;2022-09-09T02:07:42;14.60;99.90
36002;DHT22;22070;50.922;5.430;2022-09-09T02:10:23;14.60;99.90
36002;DHT22;22070;50.922;5.430;2022-09-09T02:13:00;14.70;99.90
36002;DHT22;22070;50.922;5.430;2022-09-09T02:15:35;14.70;99.90
36002;DHT22;22070;50.922;5.430;2022-09-09T02:18:06;14.70;99.90
36002;DHT22;22070;50.922;5.430;2022-09-09T02:20:36;14.70;99.90
36002;DHT22;22070;50.922;5.430;2022-09-09T02:23:04;14.80;99.90
36002;DHT22;22070;50.922;5.430;2022-09-09T02:25:31;14.80;99.90
36002;DHT22;22070;50.922;5.430;2022-09-09T02:27:59;14.70;99.90
36002;DHT22;22070;50.922;5.430;2022-09-09T02:30:25;14.70;99.90
36002;DHT22;22070;50.922;5.430;2022-09-09T02:32:54;14.80;99.90
36002;DHT22;22070;50.922;5.430;2022-09-09T02:35:24;14.70;99.90
36002;DHT22;22070;50.922;5.430;2022-09-09T02:37:52;14.70;99.90
36002;DHT22;22070;50.922;5.430;2022-09-09T02:40:19;14.70;99.90
36002;DHT22;22070;50.922;5.430;2022-09-09T02:42:47;14.70;99.90
36002;DHT22;22070;50.922;5.430;2022-09-09T02:45:17;14.60;99.90
36002;DHT22;22070;50.922;5.430;2022-09-09T02:47:50;14.60;99.90
36002;DHT22;22070;50.922;5.430;2022-09-09T02:50:28;14.60;99.90
36002;DHT22;22070;50.922;5.430;2022-09-09T02:53:09;14.60;99.90
36002;DHT22;22070;50.922;5.430;2022-09-09T02:56:03;14.60;99.90
36002;DHT22;22070;50.922;5.430;2022-09-09T02:58:30;14.60;99.90
36002;DHT22;22070;50.922;5.430;2022-09-09T03:00:57;14.60;99.90
36002;DHT22;22070;50.922;5.430;2022-09-09T03:03:23;14.50;99.90
36002;DHT22;22070;50.922;5.430;2022-09-09T03:05:49;14.50;99.90
36002;DHT22;22070;50.922;5.430;2022-09-09T03:08:16;14.50;99.90
36002;DHT22;22070;50.922;5.430;2022-09-09T03:10:42;14.50;99.90
36002;DHT22;22070;50.922;5.430;2022-09-09T03:13:08;14.50;99.90
36002;DHT22;22070;50.922;5.430;2022-09-09T03:15:34;14.50;99.90
36002;DHT22;22070;50.922;5.430;2022-09-09T03:18:00;14.60;99.90
36002;DHT22;22070;50.922;5.430;2022-09-09T03:20:28;14.50;99.90
36002;DHT22;22070;50.922;5.430;2022-09-09T03:22:54;14.60;99.90
36002;DHT22;22070;50.922;5.430;2022-09-09T03:25:21;14.50;99.90
36002;DHT22;22070;50.922;5.430;2022-09-09T03:27:49;14.60;99.90
36002;DHT22;22070;50.922;5.430;2022-09-09T03:30:15;14.60;99.90
36002;DHT22;22070;50.922;5.430;2022-09-09T03:32:41;14.60;99.90
36002;DHT22;22070;50.922;5.430;2022-09-09T03:35:07;14.60;99.90
36002;DHT22;22070;50.922;5.430;2022-09-09T03:37:33;14.70;99.90
36002;DHT22;22070;50.922;5.430;2022-09-09T03:39:59;14.70;99.90
36002;DHT22;22070;50.922;5.430;2022-09-09T03:42:25;14.80;99.90
36002;DHT22;22070;50.922;5.430;2022-09-09T03:44:51;14.80;99.90
36002;DHT22;22070;50.922;5.430;2022-09-09T03:47:17;14.90;99.90
36002;DHT22;22070;50.922;5.430;2022-09-09T03:49:43;14.90;99.90
36002;DHT22;22070;50.922;5.430;2022-09-09T03:52:09;14.90;99.90
36002;DHT22;22070;50.922;5.430;2022-09-09T03:54:35;15.00;99.90
36002;DHT22;22070;50.922;5.430;2022-09-09T03:57:01;15.00;99.90
36002;DHT22;22070;50.922;5.430;2022-09-09T03:59:27;15.00;99.90
36002;DHT22;22070;50.922;5.430;2022-09-09T04:01:54;15.00;99.90
36002;DHT22;22070;50.922;5.430;2022-09-09T04:04:20;15.00;99.90
36002;DHT22;22070;50.922;5.430;2022-09-09T04:06:46;15.00;99.90
36002;DHT22;22070;50.922;5.430;2022-09-09T04:09:13;15.00;99.90
36002;DHT22;22070;50.922;5.430;2022-09-09T04:11:39;15.00;99.90
36002;DHT22;22070;50.922;5.430;2022-09-09T04:14:05;15.00;99.90
36002;DHT22;22070;50.922;5.430;2022-09-09T04:16:32;14.90;99.90
36002;DHT22;22070;50.922;5.430;2022-09-09T04:18:58;14.90;99.90
36002;DHT22;22070;50.922;5.430;2022-09-09T04:21:25;14.80;99.90
36002;DHT22;22070;50.922;5.430;2022-09-09T04:23:51;14.80;99.90
36002;DHT22;22070;50.922;5.430;2022-09-09T04:26:17;14.80;99.90
36002;DHT22;22070;50.922;5.430;2022-09-09T04:28:43;14.80;99.90
36002;DHT22;22070;50.922;5.430;2022-09-09T04:31:18;14.90;99.90
36002;DHT22;22070;50.922;5.430;2022-09-09T04:33:44;14.80;99.90
36002;DHT22;22070;50.922;5.430;2022-09-09T04:36:09;14.80;99.90
36002;DHT22;22070;50.922;5.430;2022-09-09T04:38:35;14.80;99.90
36002;DHT22;22070;50.922;5.430;2022-09-09T04:41:01;14.80;99.90
36002;DHT22;22070;50.922;5.430;2022-09-09T04:43:27;14.80;99.90
36002;DHT22;22070;50.922;5.430;2022-09-09T04:45:53;14.80;99.90
36002;DHT22;22070;50.922;5.430;2022-09-09T04:48:19;14.80;99.90
36002;DHT22;22070;50.922;5.430;2022-09-09T04:50:57;14.90;99.90
36002;DHT22;22070;50.922;5.430;2022-09-09T04:53:23;14.90;99.90
36002;DHT22;22070;50.922;5.430;2022-09-09T04:55:49;14.90;99.90
36002;DHT22;22070;50.922;5.430;2022-09-09T04:58:14;14.90;99.90
36002;DHT22;22070;50.922;5.430;2022-09-09T05:00:40;14.90;99.90
36002;DHT22;22070;50.922;5.430;2022-09-09T05:03:07;14.90;99.90
36002;DHT22;22070;50.922;5.430;2022-09-09T05:05:34;14.90;99.90
36002;DHT22;22070;50.922;5.430;2022-09-09T05:08:02;14.90;99.90
36002;DHT22;22070;50.922;5.430;2022-09-09T05:10:27;14.80;99.90
36002;DHT22;22070;50.922;5.430;2022-09-09T05:12:54;14.80;99.90
36002;DHT22;22070;50.922;5.430;2022-09-09T05:15:19;14.80;99.90
36002;DHT22;22070;50.922;5.430;2022-09-09T05:17:46;14.80;99.90
36002;DHT22;22070;50.922;5.430;2022-09-09T05:20:12;14.90;99.90
36002;DHT22;22070;50.922;5.430;2022-09-09T05:22:37;15.00;99.90
36002;DHT22;22070;50.922;5.430;2022-09-09T05:25:04;15.00;99.90
36002;DHT22;22070;50.922;5.430;2022-09-09T05:27:29;15.00;99.90
36002;DHT22;22070;50.922;5.430;2022-09-09T05:29:57;15.10;99.90
36002;DHT22;22070;50.922;5.430;2022-09-09T05:32:23;15.20;99.90
36002;DHT22;22070;50.922;5.430;2022-09-09T05:34:49;15.20;99.90
36002;DHT22;22070;50.922;5.430;2022-09-09T05:37:15;15.20;99.90
36002;DHT22;22070;50.922;5.430;2022-09-09T05:39:42;15.20;99.90
36002;DHT22;22070;50.922;5.430;2022-09-09T05:42:07;15.20;99.90
36002;DHT22;22070;50.922;5.430;2022-09-09T05:44:33;15.30;99.90
36002;DHT22;22070;50.922;5.430;2022-09-09T05:46:59;15.30;99.90
36002;DHT22;22070;50.922;5.430;2022-09-09T05:49:24;15.40;99.90
36002;DHT22;22070;50.922;5.430;2022-09-09T05:51:50;15.40;99.90
36002;DHT22;22070;50.922;5.430;2022-09-09T05:54:17;15.50;99.90
36002;DHT22;22070;50.922;5.430;2022-09-09T05:56:43;15.60;99.90
36002;DHT22;22070;50.922;5.430;2022-09-09T05:59:08;15.50;99.90
36002;DHT22;22070;50.922;5.430;2022-09-09T06:01:36;15.50;99.90
36002;DHT22;22070;50.922;5.430;2022-09-09T06:04:06;15.50;99.90
36002;DHT22;22070;50.922;5.430;2022-09-09T06:06:34;15.60;99.90
36002;DHT22;22070;50.922;5.430;2022-09-09T06:09:05;15.60;99.90
36002;DHT22;22070;50.922;5.430;2022-09-09T06:11:37;15.70;99.90
36002;DHT22;22070;50.922;5.430;2022-09-09T06:14:04;15.80;99.90
36002;DHT22;22070;50.922;5.430;2022-09-09T06:16:31;15.80;99.90
36002;DHT22;22070;50.922;5.430;2022-09-09T06:19:00;15.90;99.90
36002;DHT22;22070;50.922;5.430;2022-09-09T06:21:35;15.90;99.90
36002;DHT22;22070;50.922;5.430;2022-09-09T06:24:04;16.00;99.90
36002;DHT22;22070;50.922;5.430;2022-09-09T06:26:35;16.00;99.90
36002;DHT22;22070;50.922;5.430;2022-09-09T06:29:02;16.10;99.90
36002;DHT22;22070;50.922;5.430;2022-09-09T06:31:30;16.10;99.90
36002;DHT22;22070;50.922;5.430;2022-09-09T06:33:58;16.10;99.90
36002;DHT22;22070;50.922;5.430;2022-09-09T06:36:26;16.10;99.90
36002;DHT22;22070;50.922;5.430;2022-09-09T06:38:52;16.10;99.90
36002;DHT22;22070;50.922;5.430;2022-09-09T06:41:19;16.10;99.90
36002;DHT22;22070;50.922;5.430;2022-09-09T06:43:46;16.10;99.90
36002;DHT22;22070;50.922;5.430;2022-09-09T06:46:14;16.10;99.90
36002;DHT22;22070;50.922;5.430;2022-09-09T06:48:40;16.10;99.90
36002;DHT22;22070;50.922;5.430;2022-09-09T06:51:08;16.10;99.90
36002;DHT22;22070;50.922;5.430;2022-09-09T06:53:35;16.20;99.90
36002;DHT22;22070;50.922;5.430;2022-09-09T06:56:03;16.20;99.90
36002;DHT22;22070;50.922;5.430;2022-09-09T06:58:42;16.30;99.90
36002;DHT22;22070;50.922;5.430;2022-09-09T07:01:22;16.30;99.90
36002;DHT22;22070;50.922;5.430;2022-09-09T07:03:50;16.40;99.90
36002;DHT22;22070;50.922;5.430;2022-09-09T07:06:24;16.50;99.90
36002;DHT22;22070;50.922;5.430;2022-09-09T07:08:55;16.60;99.90
36002;DHT22;22070;50.922;5.430;2022-09-09T07:11:23;16.70;99.90
36002;DHT22;22070;50.922;5.430;2022-09-09T07:13:49;16.70;99.90
36002;DHT22;22070;50.922;5.430;2022-09-09T07:16:19;16.70;99.90
36002;DHT22;22070;50.922;5.430;2022-09-09T07:18:46;16.70;99.90
36002;DHT22;22070;50.922;5.430;2022-09-09T07:21:13;16.80;99.90
36002;DHT22;22070;50.922;5.430;2022-09-09T07:23:39;16.70;99.90
36002;DHT22;22070;50.922;5.430;2022-09-09T07:26:16;16.90;99.90
36002;DHT22;22070;50.922;5.430;2022-09-09T07:28:45;17.00;99.90
36002;DHT22;22070;50.922;5.430;2022-09-09T07:31:19;17.10;99.90
36002;DHT22;22070;50.922;5.430;2022-09-09T07:33:46;17.20;99.90
36002;DHT22;22070;50.922;5.430;2022-09-09T07:36:15;17.20;99.90
36002;DHT22;22070;50.922;5.430;2022-09-09T07:38:44;17.30;99.90
36002;DHT22;22070;50.922;5.430;2022-09-09T07:41:13;17.40;99.90
36002;DHT22;22070;50.922;5.430;2022-09-09T07:43:41;17.40;99.90
36002;DHT22;22070;50.922;5.430;2022-09-09T07:46:08;17.50;99.90
36002;DHT22;22070;50.922;5.430;2022-09-09T07:48:34;17.50;99.90
36002;DHT22;22070;50.922;5.430;2022-09-09T07:51:06;17.60;99.90
36002;DHT22;22070;50.922;5.430;2022-09-09T07:53:32;17.80;99.90
36002;DHT22;22070;50.922;5.430;2022-09-09T07:56:09;17.80;99.90
36002;DHT22;22070;50.922;5.430;2022-09-09T07:58:37;17.90;99.90
36002;DHT22;22070;50.922;5.430;2022-09-09T08:01:07;18.00;99.90
36002;DHT22;22070;50.922;5.430;2022-09-09T08:03:34;18.20;99.90
36002;DHT22;22070;50.922;5.430;2022-09-09T08:06:01;18.40;99.90
36002;DHT22;22070;50.922;5.430;2022-09-09T08:08:28;18.40;99.90
36002;DHT22;22070;50.922;5.430;2022-09-09T08:10:54;18.40;99.90
36002;DHT22;22070;50.922;5.430;2022-09-09T08:13:26;18.30;99.90
36002;DHT22;22070;50.922;5.430;2022-09-09T08:15:52;18.20;99.90
36002;DHT22;22070;50.922;5.430;2022-09-09T08:18:18;18.20;99.90
36002;DHT22;22070;50.922;5.430;2022-09-09T08:20:44;17.90;99.90
36002;DHT22;22070;50.922;5.430;2022-09-09T08:23:09;17.90;99.90
36002;DHT22;22070;50.922;5.430;2022-09-09T08:25:35;17.80;99.90
36002;DHT22;22070;50.922;5.430;2022-09-09T08:28:01;17.80;99.90
36002;DHT22;22070;50.922;5.430;2022-09-09T08:30:27;17.80;99.90
36002;DHT22;22070;50.922;5.430;2022-09-09T08:32:52;17.90;99.90
36002;DHT22;22070;50.922;5.430;2022-09-09T08:35:18;17.90;99.90
36002;DHT22;22070;50.922;5.430;2022-09-09T08:37:45;17.80;99.90
36002;DHT22;22070;50.922;5.430;2022-09-09T08:40:19;17.80;99.90
36002;DHT22;22070;50.922;5.430;2022-09-09T08:42:50;17.70;99.90
36002;DHT22;22070;50.922;5.430;2022-09-09T08:45:25;17.70;99.90
36002;DHT22;22070;50.922;5.430;2022-09-09T08:48:07;17.60;99.90
36002;DHT22;22070;50.922;5.430;2022-09-09T08:50:36;17.70;99.90
36002;DHT22;22070;50.922;5.430;2022-09-09T08:53:19;17.70;99.90
36002;DHT22;22070;50.922;5.430;2022-09-09T08:55:49;17.60;99.90
36002;DHT22;22070;50.922;5.430;2022-09-09T08:58:33;17.70;99.90
36002;DHT22;22070;50.922;5.430;2022-09-09T09:01:05;17.60;99.90
36002;DHT22;22070;50.922;5.430;2022-09-09T09:10:21;17.60;99.90
36002;DHT22;22070;50.922;5.430;2022-09-09T09:12:18;17.60;99.90
36002;DHT22;22070;50.922;5.430;2022-09-09T09:14:46;17.70;99.90
36002;DHT22;22070;50.922;5.430;2022-09-09T09:17:15;17.60;99.90
36002;DHT22;22070;50.922;5.430;2022-09-09T09:19:42;17.70;99.90
36002;DHT22;22070;50.922;5.430;2022-09-09T09:22:22;17.70;99.90
36002;DHT22;22070;50.922;5.430;2022-09-09T09:24:56;17.90;99.90
36002;DHT22;22070;50.922;5.430;2022-09-09T09:27:35;17.90;99.90
36002;DHT22;22070;50.922;5.430;2022-09-09T09:30:15;18.00;99.90
36002;DHT22;22070;50.922;5.430;2022-09-09T09:32:49;17.80;99.90
36002;DHT22;22070;50.922;5.430;2022-09-09T09:35:17;17.80;99.90
36002;DHT22;22070;50.922;5.430;2022-09-09T09:37:42;17.60;99.90
36002;DHT22;22070;50.922;5.430;2022-09-09T09:40:16;17.40;99.90
36002;DHT22;22070;50.922;5.430;2022-09-09T09:43:00;17.30;99.90
36002;DHT22;22070;50.922;5.430;2022-09-09T09:45:43;17.20;99.90
36002;DHT22;22070;50.922;5.430;2022-09-09T09:48:12;17.20;99.90
36002;DHT22;22070;50.922;5.430;2022-09-09T09:50:49;17.20;99.90
36002;DHT22;22070;50.922;5.430;2022-09-09T09:53:28;17.30;99.90
36002;DHT22;22070;50.922;5.430;2022-09-09T09:55:59;17.40;99.90
36002;DHT22;22070;50.922;5.430;2022-09-09T09:58:30;17.50;99.90
36002;DHT22;22070;50.922;5.430;2022-09-09T10:00:58;17.60;99.90
36002;DHT22;22070;50.922;5.430;2022-09-09T10:03:30;17.80;99.90
36002;DHT22;22070;50.922;5.430;2022-09-09T10:05:56;17.80;99.90
36002;DHT22;22070;50.922;5.430;2022-09-09T10:08:27;17.90;99.90
36002;DHT22;22070;50.922;5.430;2022-09-09T10:11:09;17.90;99.90
36002;DHT22;22070;50.922;5.430;2022-09-09T10:19:07;17.80;99.90
36002;DHT22;22070;50.922;5.430;2022-09-09T10:28:07;17.70;99.90
36002;DHT22;22070;50.922;5.430;2022-09-09T10:33:14;17.80;99.90
36002;DHT22;22070;50.922;5.430;2022-09-09T10:38:45;17.40;99.90
36002;DHT22;22070;50.922;5.430;2022-09-09T10:44:37;17.00;99.90
36002;DHT22;22070;50.922;5.430;2022-09-09T10:55:23;16.60;99.90
36002;DHT22;22070;50.922;5.430;2022-09-09T10:57:53;16.60;99.90
36002;DHT22;22070;50.922;5.430;2022-09-09T11:00:22;16.60;99.90
36002;DHT22;22070;50.922;5.430;2022-09-09T11:02:58;16.80;99.90
36002;DHT22;22070;50.922;5.430;2022-09-09T11:05:30;17.00;99.90
36002;DHT22;22070;50.922;5.430;2022-09-09T11:08:10;17.10;99.90
36002;DHT22;22070;50.922;5.430;2022-09-09T11:13:17;17.40;99.90
36002;DHT22;22070;50.922;5.430;2022-09-09T11:15:49;17.60;99.90
36002;DHT22;22070;50.922;5.430;2022-09-09T11:18:21;17.60;99.90
36002;DHT22;22070;50.922;5.430;2022-09-09T11:20:51;17.70;99.90
36002;DHT22;22070;50.922;5.430;2022-09-09T11:23:42;17.80;99.90
36002;DHT22;22070;50.922;5.430;2022-09-09T11:26:16;18.00;99.90
36002;DHT22;22070;50.922;5.430;2022-09-09T11:32:17;18.30;99.90
36002;DHT22;22070;50.922;5.430;2022-09-09T11:35:26;18.70;99.90
36002;DHT22;22070;50.922;5.430;2022-09-09T11:42:47;19.20;99.90
36002;DHT22;22070;50.922;5.430;2022-09-09T11:45:26;19.10;99.90
36002;DHT22;22070;50.922;5.430;2022-09-09T11:47:56;19.00;99.90
36002;DHT22;22070;50.922;5.430;2022-09-09T11:52:49;18.90;99.90
36002;DHT22;22070;50.922;5.430;2022-09-09T11:58:21;19.10;99.90
36002;DHT22;22070;50.922;5.430;2022-09-09T12:00:49;19.10;99.90
36002;DHT22;22070;50.922;5.430;2022-09-09T12:03:34;19.00;99.90
36002;DHT22;22070;50.922;5.430;2022-09-09T12:06:15;18.90;99.90
36002;DHT22;22070;50.922;5.430;2022-09-09T12:08:44;18.70;99.90
36002;DHT22;22070;50.922;5.430;2022-09-09T12:11:11;18.60;99.90
36002;DHT22;22070;50.922;5.430;2022-09-09T12:13:36;18.50;99.90
36002;DHT22;22070;50.922;5.430;2022-09-09T12:16:02;18.30;99.90
36002;DHT22;22070;50.922;5.430;2022-09-09T12:18:38;18.10;99.90
36002;DHT22;22070;50.922;5.430;2022-09-09T12:23:52;17.40;99.90
36002;DHT22;22070;50.922;5.430;2022-09-09T12:29:05;16.90;99.90
36002;DHT22;22070;50.922;5.430;2022-09-09T12:34:41;16.30;99.90
36002;DHT22;22070;50.922;5.430;2022-09-09T12:37:35;16.10;99.90
36002;DHT22;22070;50.922;5.430;2022-09-09T12:40:04;16.00;99.90
36002;DHT22;22070;50.922;5.430;2022-09-09T12:42:31;16.00;99.90
36002;DHT22;22070;50.922;5.430;2022-09-09T12:45:03;16.00;99.90
36002;DHT22;22070;50.922;5.430;2022-09-09T12:47:52;16.10;99.90
36002;DHT22;22070;50.922;5.430;2022-09-09T12:50:25;16.40;99.90
36002;DHT22;22070;50.922;5.430;2022-09-09T12:52:55;16.60;99.90
36002;DHT22;22070;50.922;5.430;2022-09-09T12:55:25;16.90;99.90
36002;DHT22;22070;50.922;5.430;2022-09-09T12:57:51;17.20;99.90
36002;DHT22;22070;50.922;5.430;2022-09-09T13:00:18;17.60;99.90
36002;DHT22;22070;50.922;5.430;2022-09-09T13:02:56;18.00;99.90
36002;DHT22;22070;50.922;5.430;2022-09-09T13:05:27;18.40;99.90
36002;DHT22;22070;50.922;5.430;2022-09-09T13:08:08;18.60;99.90
36002;DHT22;22070;50.922;5.430;2022-09-09T13:10:51;18.80;99.90
36002;DHT22;22070;50.922;5.430;2022-09-09T13:13:22;18.70;99.90
36002;DHT22;22070;50.922;5.430;2022-09-09T13:15:54;18.70;99.90
36002;DHT22;22070;50.922;5.430;2022-09-09T13:18:23;19.00;99.90
36002;DHT22;22070;50.922;5.430;2022-09-09T13:20:50;19.30;99.90
36002;DHT22;22070;50.922;5.430;2022-09-09T13:23:17;19.70;99.90
36002;DHT22;22070;50.922;5.430;2022-09-09T13:25:59;19.80;99.90
36002;DHT22;22070;50.922;5.430;2022-09-09T13:28:28;20.10;99.90
36002;DHT22;22070;50.922;5.430;2022-09-09T13:31:05;20.00;99.90
36002;DHT22;22070;50.922;5.430;2022-09-09T13:33:38;20.20;99.90
36002;DHT22;22070;50.922;5.430;2022-09-09T13:36:08;20.50;99.90
36002;DHT22;22070;50.922;5.430;2022-09-09T13:38:40;20.50;99.90
36002;DHT22;22070;50.922;5.430;2022-09-09T13:41:23;20.40;99.90
36002;DHT22;22070;50.922;5.430;2022-09-09T13:43:50;20.60;99.90
36002;DHT22;22070;50.922;5.430;2022-09-09T13:46:30;20.70;99.90
36002;DHT22;22070;50.922;5.430;2022-09-09T13:48:58;20.50;99.90
36002;DHT22;22070;50.922;5.430;2022-09-09T13:51:45;20.40;99.90
36002;DHT22;22070;50.922;5.430;2022-09-09T13:54:13;20.60;99.90
36002;DHT22;22070;50.922;5.430;2022-09-09T13:56:41;20.50;99.90
36002;DHT22;22070;50.922;5.430;2022-09-09T13:59:11;20.50;99.90
36002;DHT22;22070;50.922;5.430;2022-09-09T14:01:37;20.90;99.90
36002;DHT22;22070;50.922;5.430;2022-09-09T14:04:03;21.10;99.90
36002;DHT22;22070;50.922;5.430;2022-09-09T14:06:29;21.30;99.90
36002;DHT22;22070;50.922;5.430;2022-09-09T14:08:57;21.40;99.90
36002;DHT22;22070;50.922;5.430;2022-09-09T14:11:24;21.00;99.90
36002;DHT22;22070;50.922;5.430;2022-09-09T14:13:49;21.10;99.90
36002;DHT22;22070;50.922;5.430;2022-09-09T14:16:16;21.00;99.90
36002;DHT22;22070;50.922;5.430;2022-09-09T14:18:43;21.00;99.90
36002;DHT22;22070;50.922;5.430;2022-09-09T14:21:09;21.00;99.90
36002;DHT22;22070;50.922;5.430;2022-09-09T14:23:35;21.10;99.90
36002;DHT22;22070;50.922;5.430;2022-09-09T14:26:01;21.10;99.90
36002;DHT22;22070;50.922;5.430;2022-09-09T14:28:26;21.00;99.90
36002;DHT22;22070;50.922;5.430;2022-09-09T14:30:53;21.00;99.90
36002;DHT22;22070;50.922;5.430;2022-09-09T14:33:19;20.70;99.90
36002;DHT22;22070;50.922;5.430;2022-09-09T14:35:45;20.60;99.90
36002;DHT22;22070;50.922;5.430;2022-09-09T14:38:10;20.30;99.90
36002;DHT22;22070;50.922;5.430;2022-09-09T14:40:37;20.30;99.90
36002;DHT22;22070;50.922;5.430;2022-09-09T14:43:03;20.10;99.90
36002;DHT22;22070;50.922;5.430;2022-09-09T14:45:29;20.00;99.90
36002;DHT22;22070;50.922;5.430;2022-09-09T14:47:55;19.90;99.90
36002;DHT22;22070;50.922;5.430;2022-09-09T14:50:21;19.90;99.90
36002;DHT22;22070;50.922;5.430;2022-09-09T14:52:47;20.40;99.90
36002;DHT22;22070;50.922;5.430;2022-09-09T14:55:13;21.10;99.90
36002;DHT22;22070;50.922;5.430;2022-09-09T14:57:40;21.00;99.90
36002;DHT22;22070;50.922;5.430;2022-09-09T15:00:07;20.80;99.90
36002;DHT22;22070;50.922;5.430;2022-09-09T15:02:34;20.90;99.90
36002;DHT22;22070;50.922;5.430;2022-09-09T15:05:00;21.10;99.90
36002;DHT22;22070;50.922;5.430;2022-09-09T15:07:26;21.10;99.90
36002;DHT22;22070;50.922;5.430;2022-09-09T15:09:54;21.10;99.90
36002;DHT22;22070;50.922;5.430;2022-09-09T15:12:19;20.80;99.90
36002;DHT22;22070;50.922;5.430;2022-09-09T15:14:46;20.70;99.90
36002;DHT22;22070;50.922;5.430;2022-09-09T15:17:12;20.60;99.90
36002;DHT22;22070;50.922;5.430;2022-09-09T15:19:38;20.50;99.90
36002;DHT22;22070;50.922;5.430;2022-09-09T15:22:04;20.30;99.90
36002;DHT22;22070;50.922;5.430;2022-09-09T15:24:34;20.20;99.90
36002;DHT22;22070;50.922;5.430;2022-09-09T15:27:01;20.40;99.90
36002;DHT22;22070;50.922;5.430;2022-09-09T15:29:26;21.00;99.90
36002;DHT22;22070;50.922;5.430;2022-09-09T15:31:54;21.20;99.90
36002;DHT22;22070;50.922;5.430;2022-09-09T15:34:20;20.90;99.90
36002;DHT22;22070;50.922;5.430;2022-09-09T15:36:46;20.70;99.90
36002;DHT22;22070;50.922;5.430;2022-09-09T15:39:14;20.60;99.90
36002;DHT22;22070;50.922;5.430;2022-09-09T15:41:46;20.40;99.90
36002;DHT22;22070;50.922;5.430;2022-09-09T15:44:13;20.30;99.90
36002;DHT22;22070;50.922;5.430;2022-09-09T15:47:05;20.40;99.90
36002;DHT22;22070;50.922;5.430;2022-09-09T15:49:31;20.40;99.90
36002;DHT22;22070;50.922;5.430;2022-09-09T15:51:58;20.20;99.90
36002;DHT22;22070;50.922;5.430;2022-09-09T15:54:27;20.30;99.90
36002;DHT22;22070;50.922;5.430;2022-09-09T15:56:58;20.30;99.90
36002;DHT22;22070;50.922;5.430;2022-09-09T15:59:27;20.60;99.90
36002;DHT22;22070;50.922;5.430;2022-09-09T16:01:56;20.90;99.90
36002;DHT22;22070;50.922;5.430;2022-09-09T16:04:23;21.20;99.90
36002;DHT22;22070;50.922;5.430;2022-09-09T16:06:59;21.60;99.90
36002;DHT22;22070;50.922;5.430;2022-09-09T16:09:26;21.90;99.90
36002;DHT22;22070;50.922;5.430;2022-09-09T16:11:52;22.20;99.90
36002;DHT22;22070;50.922;5.430;2022-09-09T16:14:21;22.10;99.90
36002;DHT22;22070;50.922;5.430;2022-09-09T16:16:47;21.60;99.90
36002;DHT22;22070;50.922;5.430;2022-09-09T16:19:13;21.20;99.90
36002;DHT22;22070;50.922;5.430;2022-09-09T16:21:44;20.80;99.90
36002;DHT22;22070;50.922;5.430;2022-09-09T16:24:12;20.60;99.90
36002;DHT22;22070;50.922;5.430;2022-09-09T16:26:44;20.30;99.90
36002;DHT22;22070;50.922;5.430;2022-09-09T16:29:11;20.00;99.90
36002;DHT22;22070;50.922;5.430;2022-09-09T16:31:37;19.90;99.90
36002;DHT22;22070;50.922;5.430;2022-09-09T16:34:03;19.60;99.90
36002;DHT22;22070;50.922;5.430;2022-09-09T16:36:31;19.40;99.90
36002;DHT22;22070;50.922;5.430;2022-09-09T16:39:05;19.20;99.90
36002;DHT22;22070;50.922;5.430;2022-09-09T16:41:32;19.00;99.90
36002;DHT22;22070;50.922;5.430;2022-09-09T16:44:00;19.00;99.90
36002;DHT22;22070;50.922;5.430;2022-09-09T16:46:28;18.80;99.90
36002;DHT22;22070;50.922;5.430;2022-09-09T16:48:56;18.70;99.90
36002;DHT22;22070;50.922;5.430;2022-09-09T16:51:29;18.50;99.90
36002;DHT22;22070;50.922;5.430;2022-09-09T16:53:58;18.50;99.90
36002;DHT22;22070;50.922;5.430;2022-09-09T16:56:25;18.70;99.90
36002;DHT22;22070;50.922;5.430;2022-09-09T16:58:56;18.80;99.90
36002;DHT22;22070;50.922;5.430;2022-09-09T17:01:31;18.90;99.90
36002;DHT22;22070;50.922;5.430;2022-09-09T17:04:00;18.80;99.90
36002;DHT22;22070;50.922;5.430;2022-09-09T17:06:27;18.80;99.90
36002;DHT22;22070;50.922;5.430;2022-09-09T17:09:01;18.70;99.90
36002;DHT22;22070;50.922;5.430;2022-09-09T17:11:27;18.70;99.90
36002;DHT22;22070;50.922;5.430;2022-09-09T17:13:54;18.70;99.90
36002;DHT22;22070;50.922;5.430;2022-09-09T17:16:22;18.60;99.90
36002;DHT22;22070;50.922;5.430;2022-09-09T17:18:51;18.40;99.90